Time;durP1;ratioP1;P1;durP2;ratioP2;P2;SDS_P1;SDS_P2;PMS_P1;PMS_P2;Temp;Humidity;BMP_temperature;BMP_pressure;BME280_temperature;BME280_humidity;BME280_pressure;Samples;Min_cycle;Max_cycle;Signal;HPM_P1;HPM_P2
2024/03/17 00:02:47;;;;;;;9.00;5.90;;;;;;;12.17;73.54;99053.95;233638;180;137032;-63
2024/03/17 00:07:49;;;;;;;8.30;5.50;;;;;;;12.16;73.32;99057.80;233792;176;151415;-64
2024/03/17 00:12:52;;;;;;;8.00;5.20;;;;;;;12.19;73.07;99058.64;233809;180;138175;-63
2024/03/17 00:17:55;;;;;;;6.50;4.30;;;;;;;12.29;72.56;99062.06;233762;180;137268;-64
2024/03/17 00:22:58;;;;;;;6.60;3.90;;;;;;;12.26;72.05;99062.42;233811;180;152412;-64
2024/03/17 00:28:02;;;;;;;6.20;3.90;;;;;;;12.13;72.07;99067.77;233761;180;137174;-64
2024/03/17 00:33:05;;;;;;;6.90;3.90;;;;;;;12.07;72.42;99068.86;233401;180;137456;-64
2024/03/17 00:38:12;;;;;;;4.80;3.30;;;;;;;11.97;72.59;99074.48;233594;180;150269;-64
2024/03/17 00:43:15;;;;;;;2.50;1.60;;;;;;;11.85;71.44;99083.33;233502;180;136837;-64
2024/03/17 00:48:18;;;;;;;1.60;1.10;;;;;;;11.62;70.14;99089.80;233864;180;137151;-65
2024/03/17 00:53:21;;;;;;;3.00;1.20;;;;;;;11.49;69.80;99098.48;233825;180;151448;-64
2024/03/17 00:58:24;;;;;;;1.90;1.40;;;;;;;11.31;70.07;99110.42;233708;180;137567;-63
2024/03/17 01:03:27;;;;;;;3.80;1.90;;;;;;;11.03;71.15;99116.29;233815;180;137363;-63
2024/03/17 01:08:31;;;;;;;2.30;2.10;;;;;;;10.94;71.69;99120.05;233822;180;152389;-64
2024/03/17 01:13:41;;;;;;;2.70;2.00;;;;;;;10.79;71.85;99126.48;233731;180;136672;-64
2024/03/17 01:18:45;;;;;;;2.60;2.00;;;;;;;10.70;72.21;99134.33;233657;180;138697;-64
2024/03/17 01:23:49;;;;;;;2.00;1.60;;;;;;;10.62;71.43;99141.02;233767;180;151931;-63
2024/03/17 01:28:52;;;;;;;2.30;1.40;;;;;;;10.51;70.02;99132.46;233741;180;136763;-63
2024/03/17 01:33:55;;;;;;;1.90;1.60;;;;;;;10.26;70.12;99140.16;233825;179;136557;-63
2024/03/17 01:39:00;;;;;;;2.90;1.70;;;;;;;10.18;70.50;99152.98;233494;179;151169;-64
2024/03/17 01:44:03;;;;;;;2.30;1.60;;;;;;;10.20;70.43;99162.48;233715;180;137996;-64
2024/03/17 01:49:07;;;;;;;3.10;2.20;;;;;;;10.04;70.80;99163.58;233697;180;137740;-64
2024/03/17 01:54:11;;;;;;;3.50;2.10;;;;;;;10.04;71.43;99169.78;233868;180;151580;-64
2024/03/17 01:59:14;;;;;;;4.40;2.40;;;;;;;10.07;71.11;99178.80;233756;180;137325;-65
2024/03/17 02:04:17;;;;;;;6.40;3.20;;;;;;;10.07;70.46;99189.29;233766;179;136937;-64
2024/03/17 02:09:22;;;;;;;6.50;3.30;;;;;;;10.07;69.71;99199.02;233797;179;151371;-64
2024/03/17 02:14:24;;;;;;;6.20;3.80;;;;;;;10.06;67.99;99212.77;233730;180;138956;-64
2024/03/17 02:19:27;;;;;;;6.60;3.50;;;;;;;9.87;67.39;99232.25;233828;172;137994;-64
2024/03/17 02:24:30;;;;;;;6.20;3.30;;;;;;;9.77;67.50;99243.98;233767;173;152449;-64
2024/03/17 02:29:33;;;;;;;6.30;3.60;;;;;;;9.76;67.92;99254.16;233786;180;136966;-64
2024/03/17 02:34:37;;;;;;;6.60;3.60;;;;;;;9.71;67.57;99264.14;233804;179;137319;-64
2024/03/17 02:39:41;;;;;;;9.10;3.60;;;;;;;9.68;66.77;99272.46;233728;176;151585;-63
2024/03/17 02:44:44;;;;;;;8.50;3.40;;;;;;;9.67;66.65;99280.31;233659;179;137563;-63
2024/03/17 02:49:50;;;;;;;7.00;2.80;;;;;;;9.65;65.38;99291.40;232918;179;137105;-63
2024/03/17 02:54:53;;;;;;;6.00;2.50;;;;;;;9.57;64.33;99296.45;233793;179;151455;-63
2024/03/17 03:00:04;;;;;;;6.00;2.30;;;;;;;9.42;63.91;99300.44;233827;179;137026;-63
2024/03/17 03:05:07;;;;;;;11.30;2.80;;;;;;;9.30;64.35;99308.14;233363;179;136975;-63
2024/03/17 03:10:10;;;;;;;8.80;3.10;;;;;;;9.24;64.59;99308.29;233850;179;152216;-63
2024/03/17 03:15:13;;;;;;;6.80;2.40;;;;;;;9.26;64.63;99315.27;233822;179;138357;-63
2024/03/17 03:20:16;;;;;;;5.30;2.60;;;;;;;9.18;64.65;99317.27;233715;179;136731;-64
2024/03/17 03:25:19;;;;;;;6.90;2.40;;;;;;;9.15;64.77;99319.01;233782;179;152090;-63
2024/03/17 03:30:22;;;;;;;7.80;2.40;;;;;;;9.15;64.97;99317.60;233777;179;137794;-63
2024/03/17 03:35:28;;;;;;;5.40;2.60;;;;;;;9.18;64.93;99318.13;233793;176;137443;-64
2024/03/17 03:40:32;;;;;;;7.60;2.50;;;;;;;9.15;64.95;99327.00;233701;179;151477;-64
2024/03/17 03:45:37;;;;;;;9.00;2.90;;;;;;;9.12;64.89;99330.85;233791;172;136529;-64
2024/03/17 03:50:40;;;;;;;6.40;3.20;;;;;;;9.11;64.88;99334.60;233726;179;137381;-63
2024/03/17 03:55:43;;;;;;;8.30;3.10;;;;;;;9.10;64.95;99341.05;233793;179;151991;-64
2024/03/17 04:00:46;;;;;;;8.00;3.50;;;;;;;9.08;65.15;99348.25;233754;180;137210;-63
2024/03/17 04:05:49;;;;;;;6.90;3.30;;;;;;;8.95;65.59;99346.61;233821;180;139178;-63
2024/03/17 04:10:51;;;;;;;9.20;4.20;;;;;;;8.98;65.91;99355.11;233711;180;151354;-63
2024/03/17 04:15:58;;;;;;;11.30;7.20;;;;;;;9.01;66.09;99356.02;233615;176;139506;-64
2024/03/17 04:21:11;;;;;;;10.30;6.80;;;;;;;9.07;66.05;99363.88;233806;180;137483;-63
2024/03/17 04:26:14;;;;;;;12.30;7.50;;;;;;;9.02;66.12;99361.81;233707;180;152310;-64
2024/03/17 04:31:17;;;;;;;11.90;7.60;;;;;;;8.98;66.05;99355.45;233650;180;136748;-63
2024/03/17 04:36:20;;;;;;;13.00;8.60;;;;;;;8.95;66.02;99363.76;233733;180;137859;-64
2024/03/17 04:41:23;;;;;;;15.70;8.80;;;;;;;8.92;65.75;99363.20;233759;177;152532;-63
2024/03/17 04:46:26;;;;;;;14.90;9.60;;;;;;;8.84;64.92;99375.09;233811;180;137601;-63
2024/03/17 04:51:29;;;;;;;15.50;9.10;;;;;;;8.70;64.47;99380.20;233387;180;137421;-63
2024/03/17 04:56:32;;;;;;;12.00;8.10;;;;;;;8.66;63.68;99388.18;233652;180;150942;-63
2024/03/17 05:01:36;;;;;;;14.90;8.40;;;;;;;8.51;63.01;99386.77;233813;179;137692;-63
2024/03/17 05:06:41;;;;;;;15.40;8.20;;;;;;;8.46;63.29;99398.16;233784;169;136814;-64
2024/03/17 05:11:44;;;;;;;14.10;7.40;;;;;;;8.50;63.13;99407.00;233779;179;152773;-63
2024/03/17 05:16:51;;;;;;;11.10;6.80;;;;;;;8.50;62.81;99410.88;233831;180;137892;-63
2024/03/17 05:21:53;;;;;;;11.30;5.90;;;;;;;8.45;62.77;99418.70;233748;180;140164;-63
2024/03/17 05:26:56;;;;;;;9.70;5.90;;;;;;;8.34;62.86;99420.27;233872;180;152179;-63
2024/03/17 05:31:59;;;;;;;11.40;5.00;;;;;;;8.32;62.76;99426.20;233806;180;137261;-63
2024/03/17 05:37:03;;;;;;;11.20;4.90;;;;;;;8.33;62.43;99430.38;233689;180;137231;-63
2024/03/17 05:42:09;;;;;;;9.40;3.60;;;;;;;8.27;61.85;99440.06;233754;180;151387;-64
2024/03/17 05:47:12;;;;;;;11.70;3.50;;;;;;;8.22;60.82;99442.55;233801;179;137071;-63
2024/03/17 05:52:15;;;;;;;9.10;3.00;;;;;;;8.20;59.92;99444.25;233726;180;137427;-63
2024/03/17 05:57:18;;;;;;;11.60;3.30;;;;;;;8.17;59.72;99450.73;233748;180;152021;-64
2024/03/17 06:02:21;;;;;;;11.30;3.80;;;;;;;8.01;59.22;99457.84;233775;179;136438;-63
2024/03/17 06:07:24;;;;;;;12.20;3.40;;;;;;;7.85;58.86;99462.42;233863;179;137040;-64
2024/03/17 06:12:27;;;;;;;11.30;3.80;;;;;;;7.83;59.01;99466.07;233792;179;152062;-64
2024/03/17 06:17:30;;;;;;;15.20;3.10;;;;;;;7.88;57.67;99464.77;233758;179;136748;-64
2024/03/17 06:22:33;;;;;;;11.90;2.90;;;;;;;7.79;57.24;99466.55;233780;180;137267;-63
2024/03/17 06:27:37;;;;;;;11.20;2.70;;;;;;;7.60;56.57;99464.56;233764;180;152294;-64
2024/03/17 06:32:41;;;;;;;13.00;2.60;;;;;;;7.52;56.93;99467.92;233675;180;137389;-63
2024/03/17 06:37:45;;;;;;;10.60;2.60;;;;;;;7.47;56.15;99475.54;233740;177;136534;-63
2024/03/17 06:42:48;;;;;;;7.80;2.50;;;;;;;7.47;55.77;99483.68;233076;172;152134;-63
2024/03/17 06:47:51;;;;;;;10.10;2.60;;;;;;;7.52;55.51;99480.12;233764;179;136373;-62
2024/03/17 06:52:54;;;;;;;12.90;2.70;;;;;;;7.51;54.83;99487.20;233803;173;136663;-62
2024/03/17 06:57:57;;;;;;;9.50;3.00;;;;;;;7.55;54.74;99491.61;233682;179;151078;-62
2024/03/17 07:03:00;;;;;;;8.80;3.00;;;;;;;7.62;55.11;99491.14;233788;179;136405;-63
2024/03/17 07:08:04;;;;;;;7.30;2.80;;;;;;;7.64;55.15;99488.94;233772;180;139936;-63
2024/03/17 07:13:07;;;;;;;11.60;3.40;;;;;;;7.63;55.22;99487.40;233676;180;151455;-63
2024/03/17 07:18:10;;;;;;;10.30;3.40;;;;;;;7.74;54.59;99485.52;233844;179;136617;-62
2024/03/17 07:23:13;;;;;;;8.80;3.30;;;;;;;7.77;54.27;99482.04;233787;180;137951;-63
2024/03/17 07:28:16;;;;;;;9.50;2.90;;;;;;;7.76;54.02;99479.75;233842;179;152883;-63
2024/03/17 07:33:22;;;;;;;10.60;3.60;;;;;;;7.82;54.60;99471.57;233838;179;137853;-60
2024/03/17 07:38:26;;;;;;;12.30;4.00;;;;;;;7.97;54.78;99468.44;233837;179;136455;-60
2024/03/17 07:43:31;;;;;;;8.70;3.20;;;;;;;8.14;54.64;99471.03;233526;179;152134;-60
2024/03/17 07:48:36;;;;;;;6.00;2.70;;;;;;;8.36;53.78;99474.09;233735;172;136896;-60
2024/03/17 07:53:41;;;;;;;9.50;3.10;;;;;;;8.38;52.08;99482.86;233757;179;137499;-59
2024/03/17 07:58:45;;;;;;;9.20;3.00;;;;;;;8.36;51.47;99487.70;233892;179;151292;-60
2024/03/17 08:03:55;;;;;;;5.70;2.40;;;;;;;8.40;51.18;99487.92;233595;180;137198;-59
2024/03/17 08:08:58;;;;;;;6.40;2.30;;;;;;;8.45;50.25;99485.20;233775;180;137368;-59
2024/03/17 08:14:01;;;;;;;7.90;2.30;;;;;;;8.56;49.59;99485.22;233887;180;153459;-61
2024/03/17 08:19:04;;;;;;;6.00;1.90;;;;;;;8.66;48.41;99484.56;233821;180;137735;-60
2024/03/17 08:24:08;;;;;;;14.20;4.40;;;;;;;8.63;47.28;99483.14;233703;179;137559;-62
2024/03/17 08:29:11;;;;;;;5.80;2.40;;;;;;;8.56;47.17;99484.86;233704;180;152021;-62
2024/03/17 08:34:14;;;;;;;5.30;2.20;;;;;;;8.43;46.97;99493.59;233854;179;136833;-62
2024/03/17 08:39:17;;;;;;;5.20;2.60;;;;;;;8.37;47.42;99492.43;233748;168;137571;-62
2024/03/17 08:44:20;;;;;;;5.00;2.30;;;;;;;8.40;48.45;99489.88;233560;180;151697;-63
2024/03/17 08:49:23;;;;;;;6.10;2.60;;;;;;;8.49;48.26;99488.89;233748;180;140109;-62
2024/03/17 08:54:26;;;;;;;7.40;2.70;;;;;;;8.49;48.07;99482.17;233778;180;136377;-63
2024/03/17 08:59:29;;;;;;;4.90;2.20;;;;;;;8.59;47.98;99475.52;233776;180;151976;-60
2024/03/17 09:04:32;;;;;;;7.90;2.80;;;;;;;8.86;47.22;99478.31;233693;180;136174;-60
2024/03/17 09:09:35;;;;;;;5.70;2.70;;;;;;;8.98;46.21;99476.32;233835;179;136224;-63
2024/03/17 09:14:38;;;;;;;5.30;2.50;;;;;;;9.07;46.22;99470.38;233694;180;152091;-60
2024/03/17 09:19:41;;;;;;;7.40;2.60;;;;;;;9.15;45.97;99469.48;233249;180;136766;-61
2024/03/17 09:24:46;;;;;;;9.10;2.50;;;;;;;9.19;45.57;99466.11;233675;180;136151;-61
2024/03/17 09:29:48;;;;;;;4.20;2.00;;;;;;;9.22;45.48;99464.69;233706;180;151320;-62
2024/03/17 09:34:51;;;;;;;11.00;2.60;;;;;;;9.30;45.10;99462.89;233712;179;136587;-62
2024/03/17 09:39:57;;;;;;;5.90;2.70;;;;;;;9.41;45.17;99466.94;233651;180;136709;-62
2024/03/17 09:45:00;;;;;;;7.10;2.90;;;;;;;9.56;44.68;99458.92;233776;179;151654;-63
2024/03/17 09:50:04;;;;;;;7.00;2.70;;;;;;;9.68;44.30;99460.95;233758;179;138201;-63
2024/03/17 09:55:14;;;;;;;7.30;2.70;;;;;;;9.79;43.89;99453.98;233795;180;137104;-62
2024/03/17 10:00:17;;;;;;;6.30;2.10;;;;;;;9.83;43.90;99458.59;233767;173;151147;-63
2024/03/17 10:05:25;;;;;;;5.80;2.10;;;;;;;9.85;43.50;99451.04;233756;180;140232;-62
2024/03/17 10:10:28;;;;;;;5.50;2.20;;;;;;;10.01;44.04;99445.08;233841;180;137884;-62
2024/03/17 10:15:31;;;;;;;7.60;2.70;;;;;;;9.97;43.69;99445.82;233765;179;151429;-61
2024/03/17 10:20:34;;;;;;;6.80;2.50;;;;;;;10.01;44.41;99436.35;233323;180;136858;-64
2024/03/17 10:25:40;;;;;;;6.30;2.50;;;;;;;10.32;44.15;99434.54;233784;179;137614;-63
2024/03/17 10:30:56;;;;;;;;;;;;;;;10.52;43.50;99428.84;233785;179;151897;-65
2024/03/17 10:36:01;;;;;;;7.00;2.40;;;;;;;10.78;41.98;99415.85;233772;179;136664;-65
2024/03/17 10:41:05;;;;;;;7.60;2.30;;;;;;;10.98;41.28;99411.86;233717;179;136593;-64
2024/03/17 10:46:14;;;;;;;7.60;2.20;;;;;;;11.04;40.34;99412.73;233113;179;152832;-65
2024/03/17 10:51:18;;;;;;;5.10;2.20;;;;;;;10.92;40.53;99415.05;233647;180;137795;-64
2024/03/17 10:56:24;;;;;;;6.60;2.30;;;;;;;11.03;40.34;99412.27;233733;179;137605;-65
2024/03/17 11:01:26;;;;;;;;;;;;;;;11.31;39.72;99414.90;233733;179;152459;-65
2024/03/17 11:06:29;;;;;;;5.10;2.00;;;;;;;11.24;39.03;99405.36;233852;179;136344;-67
2024/03/17 11:11:37;;;;;;;5.20;2.30;;;;;;;11.08;39.56;99408.44;233836;179;140353;-67
2024/03/17 11:16:40;;;;;;;6.50;2.20;;;;;;;11.07;39.54;99404.94;233739;179;151948;-63
2024/03/17 11:21:43;;;;;;;5.40;1.70;;;;;;;11.37;38.45;99392.02;233674;179;136480;-65
2024/03/17 11:26:46;;;;;;;4.90;1.80;;;;;;;11.46;36.59;99389.48;233743;179;140719;-65
2024/03/17 11:31:54;;;;;;;4.60;1.80;;;;;;;11.48;35.93;99398.63;233718;179;151378;-64
2024/03/17 11:36:59;;;;;;;4.90;1.60;;;;;;;11.42;36.48;99397.41;233804;179;137078;-64
2024/03/17 11:42:10;;;;;;;5.50;2.20;;;;;;;11.47;36.40;99391.73;233698;179;137505;-64
2024/03/17 11:47:13;;;;;;;5.50;1.60;;;;;;;11.43;36.51;99388.11;233753;179;151490;-63
2024/03/17 11:52:16;;;;;;;8.10;2.10;;;;;;;11.77;36.61;99386.22;233233;179;137854;-61
2024/03/17 11:57:22;;;;;;;5.50;2.10;;;;;;;12.19;36.41;99369.02;233126;179;137845;-63
2024/03/17 12:02:27;;;;;;;6.50;2.20;;;;;;;12.64;35.51;99362.42;233651;180;151196;-64
2024/03/17 12:07:41;;;;;;;8.60;1.80;;;;;;;12.80;34.57;99352.10;233009;180;137034;-64
2024/03/17 12:12:49;;;;;;;6.10;1.80;;;;;;;12.93;33.90;99348.91;232758;180;139104;-64
2024/03/17 12:17:53;;;;;;;7.50;2.00;;;;;;;13.08;34.38;99347.17;233533;180;151890;-58
2024/03/17 12:22:57;;;;;;;6.40;1.80;;;;;;;13.22;33.52;99342.84;233725;180;137852;-60
2024/03/17 12:28:00;;;;;;;6.00;1.90;;;;;;;13.11;34.08;99334.20;233846;180;137012;-60
2024/03/17 12:33:04;;;;;;;5.30;2.80;;;;;;;13.17;35.38;99333.55;233794;180;151884;-59
2024/03/17 12:38:21;;;;;;;6.30;2.00;;;;;;;13.22;33.77;99328.41;233769;180;136953;-61
2024/03/17 12:43:26;;;;;;;8.60;2.00;;;;;;;13.18;33.81;99318.58;233794;180;137906;-59
2024/03/17 12:48:29;;;;;;;6.20;1.90;;;;;;;13.07;34.30;99316.80;233790;180;151824;-59
2024/03/17 12:53:32;;;;;;;7.50;2.00;;;;;;;13.08;33.31;99313.15;233724;180;138205;-59
2024/03/17 13:04:06;;;;;;;5.30;2.00;;;;;;;12.95;34.39;99309.59;233312;180;151417;-58
2024/03/17 13:09:10;;;;;;;4.70;1.80;;;;;;;12.66;34.65;99303.89;233692;180;137806;-60
2024/03/17 13:14:17;;;;;;;5.20;1.90;;;;;;;12.46;34.53;99305.37;233769;179;137403;-59
2024/03/17 13:19:20;;;;;;;6.50;2.00;;;;;;;12.47;33.28;99303.35;233671;180;152536;-59
2024/03/17 13:24:25;;;;;;;7.20;2.00;;;;;;;12.21;33.55;99306.48;233226;179;137887;-60
2024/03/17 13:29:28;;;;;;;6.90;2.00;;;;;;;11.88;34.24;99304.10;233303;179;137076;-58
2024/03/17 13:34:31;;;;;;;4.10;1.60;;;;;;;12.03;34.12;99296.40;233428;179;151560;-59
2024/03/17 13:39:34;;;;;;;6.80;1.90;;;;;;;12.63;34.20;99288.36;233583;180;137356;-60
2024/03/17 13:44:37;;;;;;;42.20;31.40;;;;;;;13.39;33.92;99290.37;233643;180;137562;-59
2024/03/17 13:49:40;;;;;;;3.30;1.80;;;;;;;13.76;32.13;99285.98;233623;180;151089;-58
2024/03/17 13:54:43;;;;;;;4.10;1.60;;;;;;;13.50;31.72;99281.05;233279;179;137551;-58
2024/03/17 13:59:48;;;;;;;5.10;1.70;;;;;;;12.94;31.48;99279.39;233642;179;136595;-58
2024/03/17 14:04:51;;;;;;;6.40;2.00;;;;;;;12.57;32.57;99273.86;233730;180;151470;-60
2024/03/17 14:09:54;;;;;;;7.80;2.40;;;;;;;12.46;33.44;99272.60;233529;179;137191;-59
2024/03/17 14:14:57;;;;;;;6.00;1.90;;;;;;;12.40;33.31;99273.72;233597;169;138337;-59
2024/03/17 14:20:00;;;;;;;4.90;1.50;;;;;;;12.26;32.84;99275.19;233677;168;151953;-59
2024/03/17 14:25:07;;;;;;;5.80;1.80;;;;;;;12.08;33.43;99265.32;233362;180;137383;-60
2024/03/17 14:30:13;;;;;;;6.60;1.70;;;;;;;11.75;33.14;99271.84;233264;179;137330;-60
2024/03/17 14:35:17;;;;;;;6.10;1.90;;;;;;;11.49;33.86;99278.77;233537;179;151668;-60
2024/03/17 14:40:23;;;;;;;6.70;2.20;;;;;;;11.40;34.79;99274.91;233438;180;139294;-58
2024/03/17 14:45:26;;;;;;;5.60;2.10;;;;;;;11.40;35.50;99274.92;233671;180;138339;-59
2024/03/17 14:50:29;;;;;;;6.70;2.50;;;;;;;11.54;34.54;99274.75;233657;179;151826;-59
2024/03/17 14:55:33;;;;;;;5.90;3.10;;;;;;;11.53;34.86;99270.21;233737;172;137409;-60
2024/03/17 15:00:36;;;;;;;6.80;2.00;;;;;;;11.55;33.90;99270.42;233553;179;136814;-62
2024/03/17 15:05:39;;;;;;;6.30;2.10;;;;;;;11.61;34.61;99273.61;233632;179;151413;-61
2024/03/17 15:10:42;;;;;;;6.30;1.80;;;;;;;11.61;34.78;99273.64;233633;179;137734;-63
2024/03/17 15:15:46;;;;;;;5.10;2.20;;;;;;;11.59;35.13;99278.36;233794;179;136750;-62
2024/03/17 15:20:53;;;;;;;6.70;2.20;;;;;;;11.49;35.92;99281.45;233620;179;151579;-60
2024/03/17 15:26:09;;;;;;;6.50;2.10;;;;;;;11.36;36.68;99291.33;233454;179;137894;-63
2024/03/17 15:31:13;;;;;;;33.00;19.00;;;;;;;11.21;37.20;99298.08;233701;179;137106;-60
2024/03/17 15:36:16;;;;;;;11.30;2.80;;;;;;;11.23;38.55;99296.38;233604;179;151379;-62
2024/03/17 15:41:18;;;;;;;5.90;2.20;;;;;;;11.26;40.08;99293.73;233646;179;137240;-62
2024/03/17 15:46:22;;;;;;;7.90;2.30;;;;;;;11.18;41.07;99295.25;233718;179;137582;-64
2024/03/17 15:51:25;;;;;;;8.30;3.00;;;;;;;11.06;41.52;99289.77;233672;179;151903;-61
2024/03/17 15:56:33;;;;;;;10.10;2.50;;;;;;;11.00;42.30;99289.05;233759;179;138030;-62
2024/03/17 16:01:36;;;;;;;7.50;2.20;;;;;;;10.94;42.48;99296.55;233753;179;136969;-62
2024/03/17 16:06:39;;;;;;;6.60;2.20;;;;;;;10.83;42.48;99306.23;233445;180;152628;-61
2024/03/17 16:11:42;;;;;;;6.90;2.50;;;;;;;10.74;42.99;99314.59;233648;180;137019;-62
2024/03/17 16:16:45;;;;;;;169.00;119.50;;;;;;;10.65;43.73;99312.77;233085;180;137460;-61
2024/03/17 16:21:48;;;;;;;9.80;5.10;;;;;;;10.64;44.09;99315.83;233458;180;151368;-60
2024/03/17 16:26:54;;;;;;;8.00;3.30;;;;;;;10.58;43.30;99321.67;233582;180;137025;-61
2024/03/17 16:31:58;;;;;;;9.40;3.10;;;;;;;10.53;42.71;99326.80;233598;180;137422;-60
2024/03/17 16:37:01;;;;;;;9.60;3.00;;;;;;;10.34;42.77;99331.22;232944;180;151554;-61
2024/03/17 16:42:05;;;;;;;8.70;3.60;;;;;;;10.24;42.84;99329.11;233601;179;138333;-56
2024/03/17 16:47:28;;;;;;;9.20;3.10;;;;;;;10.19;43.13;99329.17;233751;180;137991;-59
2024/03/17 16:52:32;;;;;;;44.80;27.10;;;;;;;10.10;43.27;99329.15;233672;179;151376;-57
2024/03/17 16:57:36;;;;;;;8.90;3.40;;;;;;;10.00;43.29;99336.27;233645;180;138800;-57
2024/03/17 17:02:44;;;;;;;8.10;3.10;;;;;;;9.88;43.22;99337.64;233628;180;137442;-55
2024/03/17 17:07:47;;;;;;;9.00;3.50;;;;;;;9.85;43.24;99337.28;233686;180;151802;-56
2024/03/17 17:12:50;;;;;;;7.30;3.10;;;;;;;9.73;43.25;99336.68;233630;179;137535;-54
2024/03/17 17:17:56;;;;;;;9.20;3.00;;;;;;;9.64;43.60;99338.90;233811;180;137262;-51
2024/03/17 17:23:00;;;;;;;10.70;3.10;;;;;;;9.56;43.50;99345.36;233487;180;151461;-55
2024/03/17 17:28:04;;;;;;;6.60;2.80;;;;;;;9.54;42.73;99349.59;233739;180;136856;-57
2024/03/17 17:33:07;;;;;;;8.20;2.60;;;;;;;9.46;42.52;99352.27;233717;180;137854;-57
2024/03/17 17:38:10;;;;;;;8.50;2.80;;;;;;;9.48;42.31;99359.07;233747;180;151125;-58
2024/03/17 17:43:13;;;;;;;7.30;2.60;;;;;;;9.43;41.91;99358.84;233359;176;136812;-55
2024/03/17 17:48:17;;;;;;;6.30;2.70;;;;;;;9.35;41.77;99359.22;233721;179;136820;-58
2024/03/17 17:53:20;;;;;;;7.10;3.10;;;;;;;9.28;41.88;99361.01;233714;180;151189;-58
2024/03/17 17:58:24;;;;;;;75.20;55.40;;;;;;;9.25;42.02;99364.00;233708;180;139264;-59
2024/03/17 18:03:27;;;;;;;47.50;33.30;;;;;;;9.20;41.96;99355.73;233733;180;137887;-58
2024/03/17 18:08:32;;;;;;;7.40;3.60;;;;;;;9.20;41.76;99354.16;233498;179;151488;-58
2024/03/17 18:13:35;;;;;;;15.10;7.90;;;;;;;9.12;42.05;99351.95;233489;179;136821;-59
2024/03/17 18:18:41;;;;;;;9.90;3.80;;;;;;;9.07;42.01;99354.14;233827;179;137247;-59
2024/03/17 18:23:44;;;;;;;9.60;3.40;;;;;;;8.96;42.08;99352.55;233558;179;151169;-60
2024/03/17 18:28:47;;;;;;;9.90;3.80;;;;;;;8.94;42.39;99354.60;233711;172;136363;-59
2024/03/17 18:33:56;;;;;;;10.60;3.60;;;;;;;8.91;42.39;99355.64;233730;179;137067;-59
2024/03/17 18:38:59;;;;;;;7.30;4.00;;;;;;;8.88;42.45;99352.80;233667;179;151470;-63
2024/03/17 18:44:03;;;;;;;133.80;98.00;;;;;;;8.83;42.96;99345.94;232964;179;138379;-57
2024/03/17 18:49:10;;;;;;;11.50;6.20;;;;;;;8.89;42.93;99337.35;232933;179;138475;-62
2024/03/17 18:54:13;;;;;;;9.60;4.70;;;;;;;8.83;42.67;99335.15;233754;179;151546;-59
2024/03/17 18:59:18;;;;;;;9.50;4.10;;;;;;;8.71;43.08;99344.25;233774;179;136145;-59
2024/03/17 19:04:22;;;;;;;13.40;3.60;;;;;;;8.67;43.21;99344.78;233701;169;137234;-59
2024/03/17 19:09:25;;;;;;;10.00;3.10;;;;;;;8.62;42.85;99344.36;233637;180;151340;-60
2024/03/17 19:14:30;;;;;;;7.60;3.60;;;;;;;8.48;42.99;99345.02;233028;179;137902;-60
2024/03/17 19:19:33;;;;;;;9.60;3.80;;;;;;;8.41;43.34;99346.27;233741;179;137439;-61
2024/03/17 19:24:36;;;;;;;10.80;4.30;;;;;;;8.41;43.58;99347.31;233684;179;152241;-60
2024/03/17 19:29:38;;;;;;;17.80;8.80;;;;;;;8.34;43.81;99356.29;233461;180;137326;-61
2024/03/17 19:34:43;;;;;;;10.20;4.20;;;;;;;8.30;43.97;99360.36;233750;179;137218;-60
2024/03/17 19:39:46;;;;;;;12.90;4.60;;;;;;;8.26;44.05;99361.04;233771;179;151999;-61
2024/03/17 19:44:49;;;;;;;11.60;4.70;;;;;;;8.20;44.28;99364.34;233312;179;136819;-60
2024/03/17 19:49:52;;;;;;;12.50;4.80;;;;;;;8.20;44.68;99366.84;233643;179;137760;-60
2024/03/17 19:54:56;;;;;;;10.00;4.60;;;;;;;8.21;44.78;99366.95;233687;179;151498;-60
2024/03/17 20:00:00;;;;;;;81.30;50.60;;;;;;;8.22;45.94;99369.20;233748;179;137178;-61
2024/03/17 20:05:13;;;;;;;13.20;6.00;;;;;;;8.20;45.52;99365.21;233680;179;137674;-61
2024/03/17 20:10:17;;;;;;;13.70;6.40;;;;;;;8.13;45.75;99368.21;233496;180;151652;-61
2024/03/17 20:15:22;;;;;;;166.10;110.00;;;;;;;8.15;47.64;99367.44;233668;180;137391;-61
2024/03/17 20:20:27;;;;;;;15.70;8.20;;;;;;;8.16;49.63;99364.17;233769;179;137205;-62
2024/03/17 20:25:32;;;;;;;12.40;5.50;;;;;;;8.18;49.96;99365.70;233723;180;151300;-61
2024/03/17 20:30:35;;;;;;;11.10;5.50;;;;;;;8.13;50.52;99368.58;233728;180;137322;-61
2024/03/17 20:35:38;;;;;;;11.30;4.90;;;;;;;8.02;50.76;99367.68;233783;180;137042;-60
2024/03/17 20:40:44;;;;;;;11.40;5.10;;;;;;;8.00;51.29;99367.41;233755;180;153711;-61
2024/03/17 20:45:47;;;;;;;13.20;4.90;;;;;;;7.99;51.76;99366.37;233780;180;136361;-62
2024/03/17 20:50:50;;;;;;;11.50;4.40;;;;;;;7.97;52.13;99361.89;233731;180;136657;-61
2024/03/17 20:55:53;;;;;;;9.90;4.60;;;;;;;7.96;51.40;99354.87;233606;180;152063;-62
2024/03/17 21:00:57;;;;;;;8.40;4.20;;;;;;;7.94;51.01;99350.76;233637;180;137241;-62
2024/03/17 21:06:02;;;;;;;11.20;4.80;;;;;;;7.90;51.36;99348.46;233707;169;137192;-61
2024/03/17 21:11:06;;;;;;;7.10;4.20;;;;;;;7.90;51.26;99340.34;233785;180;151340;-61
2024/03/17 21:16:09;;;;;;;7.70;4.60;;;;;;;7.91;50.62;99334.09;233811;180;139858;-61
2024/03/17 21:21:12;;;;;;;7.20;3.90;;;;;;;7.90;49.81;99334.15;233641;180;138669;-62
2024/03/17 21:26:15;;;;;;;8.90;4.50;;;;;;;7.79;49.81;99338.55;233711;179;151189;-61
2024/03/17 21:31:18;;;;;;;7.70;4.30;;;;;;;7.74;50.37;99327.80;233788;180;137799;-62
2024/03/17 21:36:22;;;;;;;6.40;4.40;;;;;;;7.73;50.44;99328.35;233818;180;137290;-61
2024/03/17 21:41:26;;;;;;;7.90;4.70;;;;;;;7.74;50.08;99331.16;233780;180;154058;-62
2024/03/17 21:46:29;;;;;;;8.30;4.60;;;;;;;7.70;49.99;99329.95;233780;180;136990;-62
2024/03/17 21:51:31;;;;;;;7.30;4.80;;;;;;;7.65;50.37;99324.16;233826;180;136573;-62
2024/03/17 21:56:34;;;;;;;9.40;4.90;;;;;;;7.63;50.72;99320.73;233688;180;151961;-61
2024/03/17 22:01:37;;;;;;;7.90;4.40;;;;;;;7.59;50.98;99317.72;233765;180;137198;-62
2024/03/17 22:06:40;;;;;;;6.70;4.10;;;;;;;7.57;51.38;99318.33;233645;180;138304;-62
2024/03/17 22:11:44;;;;;;;8.00;4.10;;;;;;;7.53;51.19;99319.94;233735;179;151855;-61
2024/03/17 22:16:47;;;;;;;6.40;4.00;;;;;;;7.52;51.27;99318.05;233799;180;136955;-61
2024/03/17 22:21:50;;;;;;;5.60;3.40;;;;;;;7.49;51.09;99316.56;233770;180;136397;-62
2024/03/17 22:26:53;;;;;;;8.70;3.80;;;;;;;7.35;50.64;99316.52;233811;180;153709;-62
2024/03/17 22:31:56;;;;;;;5.50;3.60;;;;;;;7.25;50.89;99312.88;233745;180;137449;-63
2024/03/17 22:36:59;;;;;;;5.30;3.60;;;;;;;7.17;50.48;99308.98;233755;179;136855;-63
2024/03/17 22:42:02;;;;;;;4.50;2.70;;;;;;;7.13;50.53;99315.36;233780;179;153452;-64
2024/03/17 22:47:07;;;;;;;3.00;2.10;;;;;;;7.07;49.48;99314.90;233632;180;137481;-63
2024/03/17 22:52:10;;;;;;;5.20;2.90;;;;;;;7.00;48.93;99314.66;233752;180;137760;-63
2024/03/17 22:57:13;;;;;;;3.40;2.10;;;;;;;6.88;48.60;99314.99;233817;179;151531;-63
2024/03/17 23:02:16;;;;;;;3.60;2.00;;;;;;;6.84;48.39;99306.00;233619;180;136979;-62
2024/03/17 23:07:20;;;;;;;3.10;1.70;;;;;;;6.78;47.93;99311.91;233692;179;137580;-62
2024/03/17 23:12:23;;;;;;;2.70;1.80;;;;;;;6.60;47.47;99313.54;233766;179;152353;-62
2024/03/17 23:17:26;;;;;;;3.00;1.50;;;;;;;6.47;47.78;99312.15;233782;179;136966;-62
2024/03/17 23:22:28;;;;;;;2.30;1.40;;;;;;;6.39;47.99;99310.36;233722;176;137509;-63
2024/03/17 23:27:31;;;;;;;3.40;1.50;;;;;;;6.30;47.72;99307.38;233763;179;152158;-62
2024/03/17 23:32:38;;;;;;;5.40;3.60;;;;;;;6.27;47.63;99304.33;233761;179;136818;-62
2024/03/17 23:37:41;;;;;;;2.30;1.30;;;;;;;6.29;47.30;99306.52;233731;179;137156;-63
2024/03/17 23:42:44;;;;;;;2.40;1.20;;;;;;;6.28;46.52;99301.63;233772;179;151873;-62
2024/03/17 23:47:47;;;;;;;5.00;1.30;;;;;;;6.21;45.54;99301.04;233770;179;137345;-62